sensor_id;sensor_type;location;lat;lon;timestamp;P1;durP1;ratioP1;P2;durP2;ratioP2
11427;SDS011;5770;44.504;11.346;2023-06-22T00:01:15;6.47;;;5.20;;
11427;SDS011;5770;44.504;11.346;2023-06-22T00:03:42;10.10;;;5.57;;
11427;SDS011;5770;44.504;11.346;2023-06-22T00:06:09;6.88;;;5.30;;
11427;SDS011;5770;44.504;11.346;2023-06-22T00:08:37;10.60;;;5.68;;
11427;SDS011;5770;44.504;11.346;2023-06-22T00:11:04;10.48;;;5.55;;
11427;SDS011;5770;44.504;11.346;2023-06-22T00:13:32;7.25;;;6.03;;
11427;SDS011;5770;44.504;11.346;2023-06-22T00:15:59;10.65;;;5.10;;
11427;SDS011;5770;44.504;11.346;2023-06-22T00:18:27;9.88;;;5.20;;
11427;SDS011;5770;44.504;11.346;2023-06-22T00:20:55;9.50;;;5.43;;
11427;SDS011;5770;44.504;11.346;2023-06-22T00:23:23;8.15;;;5.32;;
11427;SDS011;5770;44.504;11.346;2023-06-22T00:25:51;8.32;;;5.07;;
11427;SDS011;5770;44.504;11.346;2023-06-22T00:28:18;10.98;;;5.40;;
11427;SDS011;5770;44.504;11.346;2023-06-22T00:30:46;7.93;;;5.30;;
11427;SDS011;5770;44.504;11.346;2023-06-22T00:33:13;14.15;;;5.68;;
11427;SDS011;5770;44.504;11.346;2023-06-22T00:35:41;11.32;;;5.50;;
11427;SDS011;5770;44.504;11.346;2023-06-22T00:38:08;10.23;;;5.07;;
11427;SDS011;5770;44.504;11.346;2023-06-22T00:40:35;7.70;;;5.28;;
11427;SDS011;5770;44.504;11.346;2023-06-22T00:43:03;10.40;;;5.32;;
11427;SDS011;5770;44.504;11.346;2023-06-22T00:45:30;8.27;;;5.18;;
11427;SDS011;5770;44.504;11.346;2023-06-22T00:47:59;10.13;;;5.43;;
11427;SDS011;5770;44.504;11.346;2023-06-22T00:50:27;6.00;;;5.10;;
11427;SDS011;5770;44.504;11.346;2023-06-22T00:52:59;11.43;;;5.70;;
11427;SDS011;5770;44.504;11.346;2023-06-22T00:55:26;7.00;;;4.90;;
11427;SDS011;5770;44.504;11.346;2023-06-22T00:57:54;11.63;;;6.30;;
11427;SDS011;5770;44.504;11.346;2023-06-22T01:00:22;11.35;;;5.95;;
11427;SDS011;5770;44.504;11.346;2023-06-22T01:02:50;9.32;;;5.28;;
11427;SDS011;5770;44.504;11.346;2023-06-22T01:05:19;8.10;;;5.97;;
11427;SDS011;5770;44.504;11.346;2023-06-22T01:07:51;11.30;;;6.47;;
11427;SDS011;5770;44.504;11.346;2023-06-22T01:10:21;11.95;;;6.55;;
11427;SDS011;5770;44.504;11.346;2023-06-22T01:12:52;9.80;;;5.68;;
11427;SDS011;5770;44.504;11.346;2023-06-22T01:15:21;7.95;;;5.47;;
11427;SDS011;5770;44.504;11.346;2023-06-22T01:17:50;8.70;;;5.50;;
11427;SDS011;5770;44.504;11.346;2023-06-22T01:20:21;8.75;;;5.70;;
11427;SDS011;5770;44.504;11.346;2023-06-22T01:22:52;9.25;;;6.07;;
11427;SDS011;5770;44.504;11.346;2023-06-22T01:25:26;9.30;;;5.68;;
11427;SDS011;5770;44.504;11.346;2023-06-22T01:27:56;8.75;;;5.60;;
11427;SDS011;5770;44.504;11.346;2023-06-22T01:30:27;8.13;;;5.50;;
11427;SDS011;5770;44.504;11.346;2023-06-22T01:32:56;9.85;;;5.10;;
11427;SDS011;5770;44.504;11.346;2023-06-22T01:35:23;6.97;;;5.15;;
11427;SDS011;5770;44.504;11.346;2023-06-22T01:37:51;7.07;;;5.35;;
11427;SDS011;5770;44.504;11.346;2023-06-22T01:40:18;9.93;;;5.50;;
11427;SDS011;5770;44.504;11.346;2023-06-22T01:42:46;9.30;;;5.55;;
11427;SDS011;5770;44.504;11.346;2023-06-22T01:45:14;7.20;;;5.30;;
11427;SDS011;5770;44.504;11.346;2023-06-22T01:47:43;7.85;;;5.05;;
11427;SDS011;5770;44.504;11.346;2023-06-22T01:50:11;8.18;;;5.68;;
11427;SDS011;5770;44.504;11.346;2023-06-22T01:52:38;6.95;;;5.30;;
11427;SDS011;5770;44.504;11.346;2023-06-22T01:55:06;8.48;;;5.28;;
11427;SDS011;5770;44.504;11.346;2023-06-22T01:57:33;8.93;;;5.18;;
11427;SDS011;5770;44.504;11.346;2023-06-22T02:00:02;7.47;;;5.70;;
11427;SDS011;5770;44.504;11.346;2023-06-22T02:02:32;11.63;;;5.80;;
11427;SDS011;5770;44.504;11.346;2023-06-22T02:05:03;5.97;;;5.28;;
11427;SDS011;5770;44.504;11.346;2023-06-22T02:07:32;8.30;;;5.63;;
11427;SDS011;5770;44.504;11.346;2023-06-22T02:10:04;10.88;;;5.47;;
11427;SDS011;5770;44.504;11.346;2023-06-22T02:12:33;9.98;;;5.10;;
11427;SDS011;5770;44.504;11.346;2023-06-22T02:15:01;7.05;;;4.75;;
11427;SDS011;5770;44.504;11.346;2023-06-22T02:17:28;6.55;;;5.18;;
11427;SDS011;5770;44.504;11.346;2023-06-22T02:19:58;6.90;;;5.15;;
11427;SDS011;5770;44.504;11.346;2023-06-22T02:22:26;8.48;;;5.38;;
11427;SDS011;5770;44.504;11.346;2023-06-22T02:24:53;6.28;;;5.03;;
11427;SDS011;5770;44.504;11.346;2023-06-22T02:27:20;11.98;;;4.78;;
11427;SDS011;5770;44.504;11.346;2023-06-22T02:29:48;9.15;;;5.15;;
11427;SDS011;5770;44.504;11.346;2023-06-22T02:32:15;7.57;;;5.00;;
11427;SDS011;5770;44.504;11.346;2023-06-22T02:34:43;7.80;;;5.05;;
11427;SDS011;5770;44.504;11.346;2023-06-22T02:37:12;12.13;;;5.47;;
11427;SDS011;5770;44.504;11.346;2023-06-22T02:39:42;7.10;;;5.40;;
11427;SDS011;5770;44.504;11.346;2023-06-22T02:42:09;7.85;;;5.65;;
11427;SDS011;5770;44.504;11.346;2023-06-22T02:44:36;8.30;;;5.30;;
11427;SDS011;5770;44.504;11.346;2023-06-22T02:47:03;6.07;;;5.38;;
11427;SDS011;5770;44.504;11.346;2023-06-22T02:49:30;10.18;;;5.55;;
11427;SDS011;5770;44.504;11.346;2023-06-22T02:51:58;8.48;;;5.50;;
11427;SDS011;5770;44.504;11.346;2023-06-22T02:54:24;6.13;;;5.38;;
11427;SDS011;5770;44.504;11.346;2023-06-22T02:56:53;8.38;;;5.30;;
11427;SDS011;5770;44.504;11.346;2023-06-22T02:59:20;7.60;;;4.97;;
11427;SDS011;5770;44.504;11.346;2023-06-22T03:01:48;7.90;;;4.90;;
11427;SDS011;5770;44.504;11.346;2023-06-22T03:04:16;5.80;;;5.20;;
11427;SDS011;5770;44.504;11.346;2023-06-22T03:06:44;6.53;;;5.32;;
11427;SDS011;5770;44.504;11.346;2023-06-22T03:09:16;7.05;;;5.43;;
11427;SDS011;5770;44.504;11.346;2023-06-22T03:11:43;9.23;;;5.72;;
11427;SDS011;5770;44.504;11.346;2023-06-22T03:14:11;7.65;;;5.22;;
11427;SDS011;5770;44.504;11.346;2023-06-22T03:16:38;12.07;;;6.07;;
11427;SDS011;5770;44.504;11.346;2023-06-22T03:19:06;19.05;;;5.75;;
11427;SDS011;5770;44.504;11.346;2023-06-22T03:21:33;9.85;;;5.40;;
11427;SDS011;5770;44.504;11.346;2023-06-22T03:24:00;5.28;;;4.78;;
11427;SDS011;5770;44.504;11.346;2023-06-22T03:26:27;9.38;;;5.07;;
11427;SDS011;5770;44.504;11.346;2023-06-22T03:28:55;9.73;;;5.47;;
11427;SDS011;5770;44.504;11.346;2023-06-22T03:31:23;7.53;;;5.43;;
11427;SDS011;5770;44.504;11.346;2023-06-22T03:33:50;9.63;;;5.65;;
11427;SDS011;5770;44.504;11.346;2023-06-22T03:36:17;9.82;;;5.30;;
11427;SDS011;5770;44.504;11.346;2023-06-22T03:38:45;6.97;;;5.10;;
11427;SDS011;5770;44.504;11.346;2023-06-22T03:41:12;7.97;;;5.60;;
11427;SDS011;5770;44.504;11.346;2023-06-22T03:43:39;11.88;;;5.30;;
11427;SDS011;5770;44.504;11.346;2023-06-22T03:46:06;5.88;;;5.28;;
11427;SDS011;5770;44.504;11.346;2023-06-22T03:48:34;7.30;;;5.50;;
11427;SDS011;5770;44.504;11.346;2023-06-22T03:51:02;6.25;;;5.22;;
11427;SDS011;5770;44.504;11.346;2023-06-22T03:53:29;8.63;;;5.40;;
11427;SDS011;5770;44.504;11.346;2023-06-22T03:55:57;6.93;;;5.55;;
11427;SDS011;5770;44.504;11.346;2023-06-22T03:58:24;12.35;;;5.72;;
11427;SDS011;5770;44.504;11.346;2023-06-22T04:00:51;10.88;;;5.70;;
11427;SDS011;5770;44.504;11.346;2023-06-22T04:03:18;11.70;;;5.50;;
11427;SDS011;5770;44.504;11.346;2023-06-22T04:05:47;11.07;;;5.28;;
11427;SDS011;5770;44.504;11.346;2023-06-22T04:08:14;8.38;;;5.32;;
11427;SDS011;5770;44.504;11.346;2023-06-22T04:10:41;6.10;;;4.85;;
11427;SDS011;5770;44.504;11.346;2023-06-22T04:13:09;8.52;;;5.65;;
11427;SDS011;5770;44.504;11.346;2023-06-22T04:15:36;10.23;;;5.22;;
11427;SDS011;5770;44.504;11.346;2023-06-22T04:18:03;6.20;;;5.30;;
11427;SDS011;5770;44.504;11.346;2023-06-22T04:20:31;9.30;;;6.20;;
11427;SDS011;5770;44.504;11.346;2023-06-22T04:22:59;9.80;;;5.45;;
11427;SDS011;5770;44.504;11.346;2023-06-22T04:25:26;9.52;;;5.22;;
11427;SDS011;5770;44.504;11.346;2023-06-22T04:27:54;11.85;;;5.88;;
11427;SDS011;5770;44.504;11.346;2023-06-22T04:30:21;12.25;;;5.43;;
11427;SDS011;5770;44.504;11.346;2023-06-22T04:32:48;10.13;;;5.43;;
11427;SDS011;5770;44.504;11.346;2023-06-22T04:35:21;8.13;;;6.05;;
11427;SDS011;5770;44.504;11.346;2023-06-22T04:37:48;10.82;;;6.15;;
11427;SDS011;5770;44.504;11.346;2023-06-22T04:40:21;7.85;;;5.30;;
11427;SDS011;5770;44.504;11.346;2023-06-22T04:42:48;8.80;;;5.90;;
11427;SDS011;5770;44.504;11.346;2023-06-22T04:45:18;7.70;;;5.65;;
11427;SDS011;5770;44.504;11.346;2023-06-22T04:47:46;6.80;;;5.70;;
11427;SDS011;5770;44.504;11.346;2023-06-22T04:50:13;5.80;;;5.25;;
11427;SDS011;5770;44.504;11.346;2023-06-22T04:52:40;11.48;;;6.18;;
11427;SDS011;5770;44.504;11.346;2023-06-22T04:55:07;11.45;;;6.10;;
11427;SDS011;5770;44.504;11.346;2023-06-22T04:57:36;6.80;;;6.07;;
11427;SDS011;5770;44.504;11.346;2023-06-22T05:00:05;14.27;;;5.68;;
11427;SDS011;5770;44.504;11.346;2023-06-22T05:02:38;10.30;;;6.05;;
11427;SDS011;5770;44.504;11.346;2023-06-22T05:05:05;8.95;;;5.57;;
11427;SDS011;5770;44.504;11.346;2023-06-22T05:07:33;8.75;;;6.00;;
11427;SDS011;5770;44.504;11.346;2023-06-22T05:10:00;13.55;;;6.45;;
11427;SDS011;5770;44.504;11.346;2023-06-22T05:12:27;10.38;;;5.45;;
11427;SDS011;5770;44.504;11.346;2023-06-22T05:14:56;6.47;;;5.40;;
11427;SDS011;5770;44.504;11.346;2023-06-22T05:17:24;8.73;;;6.35;;
11427;SDS011;5770;44.504;11.346;2023-06-22T05:19:51;9.30;;;6.00;;
11427;SDS011;5770;44.504;11.346;2023-06-22T05:22:18;12.57;;;6.40;;
11427;SDS011;5770;44.504;11.346;2023-06-22T05:24:46;9.30;;;5.88;;
11427;SDS011;5770;44.504;11.346;2023-06-22T05:27:13;9.68;;;6.03;;
11427;SDS011;5770;44.504;11.346;2023-06-22T05:29:40;10.02;;;6.30;;
11427;SDS011;5770;44.504;11.346;2023-06-22T05:32:10;9.18;;;6.03;;
11427;SDS011;5770;44.504;11.346;2023-06-22T05:34:37;7.95;;;5.95;;
11427;SDS011;5770;44.504;11.346;2023-06-22T05:37:04;11.32;;;6.30;;
11427;SDS011;5770;44.504;11.346;2023-06-22T05:39:34;14.63;;;6.50;;
11427;SDS011;5770;44.504;11.346;2023-06-22T05:42:03;12.20;;;6.28;;
11427;SDS011;5770;44.504;11.346;2023-06-22T05:44:31;11.07;;;6.57;;
11427;SDS011;5770;44.504;11.346;2023-06-22T05:46:58;11.60;;;6.22;;
11427;SDS011;5770;44.504;11.346;2023-06-22T05:49:30;10.52;;;7.13;;
11427;SDS011;5770;44.504;11.346;2023-06-22T05:51:57;11.85;;;6.90;;
11427;SDS011;5770;44.504;11.346;2023-06-22T05:54:26;12.18;;;7.35;;
11427;SDS011;5770;44.504;11.346;2023-06-22T05:56:54;15.00;;;7.15;;
11427;SDS011;5770;44.504;11.346;2023-06-22T05:59:21;13.88;;;6.25;;
11427;SDS011;5770;44.504;11.346;2023-06-22T06:01:48;13.88;;;6.63;;
11427;SDS011;5770;44.504;11.346;2023-06-22T06:04:16;11.93;;;6.32;;
11427;SDS011;5770;44.504;11.346;2023-06-22T06:06:45;11.15;;;5.88;;
11427;SDS011;5770;44.504;11.346;2023-06-22T06:09:12;13.60;;;6.28;;
11427;SDS011;5770;44.504;11.346;2023-06-22T06:11:39;19.90;;;6.40;;
11427;SDS011;5770;44.504;11.346;2023-06-22T06:14:07;12.88;;;6.32;;
11427;SDS011;5770;44.504;11.346;2023-06-22T06:16:34;13.05;;;5.90;;
11427;SDS011;5770;44.504;11.346;2023-06-22T06:19:03;14.65;;;6.00;;
11427;SDS011;5770;44.504;11.346;2023-06-22T06:21:30;10.55;;;6.13;;
11427;SDS011;5770;44.504;11.346;2023-06-22T06:23:59;10.75;;;6.35;;
11427;SDS011;5770;44.504;11.346;2023-06-22T06:26:26;16.13;;;6.18;;
11427;SDS011;5770;44.504;11.346;2023-06-22T06:28:55;13.75;;;5.97;;
11427;SDS011;5770;44.504;11.346;2023-06-22T06:31:22;12.98;;;6.13;;
11427;SDS011;5770;44.504;11.346;2023-06-22T06:33:49;16.80;;;6.30;;
11427;SDS011;5770;44.504;11.346;2023-06-22T06:36:17;10.93;;;6.43;;
11427;SDS011;5770;44.504;11.346;2023-06-22T06:38:44;14.93;;;6.53;;
11427;SDS011;5770;44.504;11.346;2023-06-22T06:41:13;9.43;;;6.72;;
11427;SDS011;5770;44.504;11.346;2023-06-22T06:43:41;12.85;;;6.15;;
11427;SDS011;5770;44.504;11.346;2023-06-22T06:46:08;13.23;;;5.88;;
11427;SDS011;5770;44.504;11.346;2023-06-22T06:48:35;8.55;;;5.40;;
11427;SDS011;5770;44.504;11.346;2023-06-22T06:51:03;15.20;;;6.43;;
11427;SDS011;5770;44.504;11.346;2023-06-22T06:53:30;11.18;;;5.97;;
11427;SDS011;5770;44.504;11.346;2023-06-22T06:55:57;6.72;;;5.68;;
11427;SDS011;5770;44.504;11.346;2023-06-22T06:58:26;10.50;;;5.57;;
11427;SDS011;5770;44.504;11.346;2023-06-22T07:00:53;9.85;;;6.20;;
11427;SDS011;5770;44.504;11.346;2023-06-22T07:03:21;9.50;;;5.28;;
11427;SDS011;5770;44.504;11.346;2023-06-22T07:05:48;16.20;;;5.88;;
11427;SDS011;5770;44.504;11.346;2023-06-22T07:08:15;9.05;;;5.82;;
11427;SDS011;5770;44.504;11.346;2023-06-22T07:10:42;15.35;;;5.78;;
11427;SDS011;5770;44.504;11.346;2023-06-22T07:13:09;10.60;;;5.95;;
11427;SDS011;5770;44.504;11.346;2023-06-22T07:15:37;11.80;;;5.72;;
11427;SDS011;5770;44.504;11.346;2023-06-22T07:18:05;10.75;;;5.95;;
11427;SDS011;5770;44.504;11.346;2023-06-22T07:20:35;9.07;;;5.57;;
11427;SDS011;5770;44.504;11.346;2023-06-22T07:23:04;9.95;;;6.13;;
11427;SDS011;5770;44.504;11.346;2023-06-22T07:25:31;12.90;;;5.72;;
11427;SDS011;5770;44.504;11.346;2023-06-22T07:27:59;14.73;;;5.55;;
11427;SDS011;5770;44.504;11.346;2023-06-22T07:30:27;9.35;;;5.50;;
11427;SDS011;5770;44.504;11.346;2023-06-22T07:32:56;7.72;;;5.28;;
11427;SDS011;5770;44.504;11.346;2023-06-22T07:35:23;8.52;;;5.50;;
11427;SDS011;5770;44.504;11.346;2023-06-22T07:37:50;8.48;;;5.47;;
11427;SDS011;5770;44.504;11.346;2023-06-22T07:40:23;12.50;;;5.28;;
11427;SDS011;5770;44.504;11.346;2023-06-22T07:42:50;12.45;;;5.80;;
11427;SDS011;5770;44.504;11.346;2023-06-22T07:45:18;14.15;;;6.22;;
11427;SDS011;5770;44.504;11.346;2023-06-22T07:47:45;12.98;;;6.80;;
11427;SDS011;5770;44.504;11.346;2023-06-22T07:50:14;11.55;;;5.82;;
11427;SDS011;5770;44.504;11.346;2023-06-22T07:52:41;12.05;;;6.40;;
11427;SDS011;5770;44.504;11.346;2023-06-22T07:55:08;13.77;;;6.05;;
11427;SDS011;5770;44.504;11.346;2023-06-22T07:57:35;13.75;;;6.78;;
11427;SDS011;5770;44.504;11.346;2023-06-22T08:00:03;11.80;;;6.72;;
11427;SDS011;5770;44.504;11.346;2023-06-22T08:02:37;10.45;;;6.90;;
11427;SDS011;5770;44.504;11.346;2023-06-22T08:05:05;8.63;;;5.88;;
11427;SDS011;5770;44.504;11.346;2023-06-22T08:07:34;12.35;;;7.15;;
11427;SDS011;5770;44.504;11.346;2023-06-22T08:10:02;13.57;;;6.70;;
11427;SDS011;5770;44.504;11.346;2023-06-22T08:12:29;12.55;;;6.63;;
11427;SDS011;5770;44.504;11.346;2023-06-22T08:14:56;11.38;;;6.03;;
11427;SDS011;5770;44.504;11.346;2023-06-22T08:17:26;10.77;;;6.22;;
11427;SDS011;5770;44.504;11.346;2023-06-22T08:19:53;9.77;;;6.55;;
11427;SDS011;5770;44.504;11.346;2023-06-22T08:22:21;10.57;;;6.88;;
11427;SDS011;5770;44.504;11.346;2023-06-22T08:24:49;10.80;;;6.68;;
11427;SDS011;5770;44.504;11.346;2023-06-22T08:27:16;32.47;;;9.57;;
11427;SDS011;5770;44.504;11.346;2023-06-22T08:29:46;6.68;;;5.95;;
11427;SDS011;5770;44.504;11.346;2023-06-22T08:32:13;11.48;;;6.03;;
11427;SDS011;5770;44.504;11.346;2023-06-22T08:34:40;10.10;;;6.30;;
11427;SDS011;5770;44.504;11.346;2023-06-22T08:37:08;9.55;;;5.75;;
11427;SDS011;5770;44.504;11.346;2023-06-22T08:39:35;10.18;;;6.22;;
11427;SDS011;5770;44.504;11.346;2023-06-22T08:42:04;10.63;;;6.88;;
11427;SDS011;5770;44.504;11.346;2023-06-22T08:44:31;11.60;;;7.05;;
11427;SDS011;5770;44.504;11.346;2023-06-22T08:46:58;11.15;;;6.13;;
11427;SDS011;5770;44.504;11.346;2023-06-22T08:49:25;10.52;;;6.47;;
11427;SDS011;5770;44.504;11.346;2023-06-22T08:51:52;12.75;;;6.57;;
11427;SDS011;5770;44.504;11.346;2023-06-22T08:54:21;14.05;;;6.57;;
11427;SDS011;5770;44.504;11.346;2023-06-22T08:56:49;12.82;;;6.55;;
11427;SDS011;5770;44.504;11.346;2023-06-22T08:59:17;13.63;;;6.40;;
11427;SDS011;5770;44.504;11.346;2023-06-22T09:01:44;11.35;;;6.55;;
11427;SDS011;5770;44.504;11.346;2023-06-22T09:04:13;9.77;;;5.70;;
11427;SDS011;5770;44.504;11.346;2023-06-22T09:06:41;12.27;;;5.95;;
11427;SDS011;5770;44.504;11.346;2023-06-22T09:09:10;10.70;;;6.18;;
11427;SDS011;5770;44.504;11.346;2023-06-22T09:11:37;10.68;;;6.15;;
11427;SDS011;5770;44.504;11.346;2023-06-22T09:14:04;13.07;;;6.43;;
11427;SDS011;5770;44.504;11.346;2023-06-22T09:16:33;10.25;;;6.53;;
11427;SDS011;5770;44.504;11.346;2023-06-22T09:19:00;14.43;;;6.72;;
11427;SDS011;5770;44.504;11.346;2023-06-22T09:21:28;8.13;;;6.00;;
11427;SDS011;5770;44.504;11.346;2023-06-22T09:23:55;7.60;;;6.13;;
11427;SDS011;5770;44.504;11.346;2023-06-22T09:26:22;11.73;;;6.40;;
11427;SDS011;5770;44.504;11.346;2023-06-22T09:28:50;10.45;;;5.82;;
11427;SDS011;5770;44.504;11.346;2023-06-22T09:31:17;10.13;;;5.90;;
11427;SDS011;5770;44.504;11.346;2023-06-22T09:33:51;10.98;;;5.60;;
11427;SDS011;5770;44.504;11.346;2023-06-22T09:36:19;9.80;;;5.50;;
11427;SDS011;5770;44.504;11.346;2023-06-22T09:38:47;7.97;;;5.63;;
11427;SDS011;5770;44.504;11.346;2023-06-22T09:41:17;9.88;;;5.70;;
11427;SDS011;5770;44.504;11.346;2023-06-22T09:43:44;17.10;;;6.10;;
11427;SDS011;5770;44.504;11.346;2023-06-22T09:46:13;9.77;;;5.63;;
11427;SDS011;5770;44.504;11.346;2023-06-22T09:48:41;11.32;;;5.70;;
11427;SDS011;5770;44.504;11.346;2023-06-22T09:51:09;8.65;;;5.18;;
11427;SDS011;5770;44.504;11.346;2023-06-22T09:53:37;10.85;;;5.45;;
11427;SDS011;5770;44.504;11.346;2023-06-22T09:56:04;11.38;;;5.30;;
11427;SDS011;5770;44.504;11.346;2023-06-22T09:58:31;7.97;;;5.13;;
11427;SDS011;5770;44.504;11.346;2023-06-22T10:00:58;8.55;;;5.43;;
11427;SDS011;5770;44.504;11.346;2023-06-22T10:03:25;10.57;;;5.22;;
11427;SDS011;5770;44.504;11.346;2023-06-22T10:05:52;9.88;;;5.22;;
11427;SDS011;5770;44.504;11.346;2023-06-22T10:08:21;9.35;;;5.68;;
11427;SDS011;5770;44.504;11.346;2023-06-22T10:10:48;16.45;;;6.30;;
11427;SDS011;5770;44.504;11.346;2023-06-22T10:13:15;10.90;;;6.03;;
11427;SDS011;5770;44.504;11.346;2023-06-22T10:15:41;9.60;;;5.60;;
11427;SDS011;5770;44.504;11.346;2023-06-22T10:18:10;14.07;;;6.00;;
11427;SDS011;5770;44.504;11.346;2023-06-22T10:20:37;11.57;;;6.32;;
11427;SDS011;5770;44.504;11.346;2023-06-22T10:23:04;16.13;;;6.28;;
11427;SDS011;5770;44.504;11.346;2023-06-22T10:25:33;13.98;;;6.03;;
11427;SDS011;5770;44.504;11.346;2023-06-22T10:28:00;11.02;;;6.72;;
11427;SDS011;5770;44.504;11.346;2023-06-22T10:30:27;14.35;;;6.10;;
11427;SDS011;5770;44.504;11.346;2023-06-22T10:32:55;12.25;;;6.50;;
11427;SDS011;5770;44.504;11.346;2023-06-22T10:35:22;11.90;;;6.03;;
11427;SDS011;5770;44.504;11.346;2023-06-22T10:37:49;12.65;;;6.05;;
11427;SDS011;5770;44.504;11.346;2023-06-22T10:40:16;13.52;;;6.00;;
11427;SDS011;5770;44.504;11.346;2023-06-22T10:42:45;12.55;;;6.05;;
11427;SDS011;5770;44.504;11.346;2023-06-22T10:45:13;10.40;;;5.85;;
11427;SDS011;5770;44.504;11.346;2023-06-22T10:47:40;9.13;;;5.97;;
11427;SDS011;5770;44.504;11.346;2023-06-22T10:50:08;10.05;;;5.70;;
11427;SDS011;5770;44.504;11.346;2023-06-22T10:52:35;10.25;;;5.97;;
11427;SDS011;5770;44.504;11.346;2023-06-22T10:55:02;14.32;;;6.05;;
11427;SDS011;5770;44.504;11.346;2023-06-22T10:57:29;12.23;;;6.60;;
11427;SDS011;5770;44.504;11.346;2023-06-22T10:59:57;8.82;;;5.53;;
11427;SDS011;5770;44.504;11.346;2023-06-22T11:02:25;9.15;;;5.72;;
11427;SDS011;5770;44.504;11.346;2023-06-22T11:04:53;12.45;;;5.80;;
11427;SDS011;5770;44.504;11.346;2023-06-22T11:07:20;14.70;;;6.32;;
11427;SDS011;5770;44.504;11.346;2023-06-22T11:09:47;10.98;;;5.75;;
11427;SDS011;5770;44.504;11.346;2023-06-22T11:12:14;11.25;;;5.80;;
11427;SDS011;5770;44.504;11.346;2023-06-22T11:14:41;16.35;;;6.70;;
11427;SDS011;5770;44.504;11.346;2023-06-22T11:17:10;8.73;;;6.43;;
11427;SDS011;5770;44.504;11.346;2023-06-22T11:19:37;16.15;;;6.82;;
11427;SDS011;5770;44.504;11.346;2023-06-22T11:22:04;13.18;;;6.10;;
11427;SDS011;5770;44.504;11.346;2023-06-22T11:24:31;9.68;;;5.97;;
11427;SDS011;5770;44.504;11.346;2023-06-22T11:26:59;11.05;;;5.95;;
11427;SDS011;5770;44.504;11.346;2023-06-22T11:29:26;12.52;;;6.53;;
11427;SDS011;5770;44.504;11.346;2023-06-22T11:31:53;8.63;;;6.00;;
11427;SDS011;5770;44.504;11.346;2023-06-22T11:34:22;13.25;;;6.45;;
11427;SDS011;5770;44.504;11.346;2023-06-22T11:36:48;8.90;;;5.78;;
11427;SDS011;5770;44.504;11.346;2023-06-22T11:39:16;12.70;;;6.38;;
11427;SDS011;5770;44.504;11.346;2023-06-22T11:41:43;10.93;;;6.20;;
11427;SDS011;5770;44.504;11.346;2023-06-22T11:44:10;10.55;;;6.22;;
11427;SDS011;5770;44.504;11.346;2023-06-22T11:46:37;7.07;;;5.88;;
11427;SDS011;5770;44.504;11.346;2023-06-22T11:49:04;16.95;;;6.70;;
11427;SDS011;5770;44.504;11.346;2023-06-22T11:51:33;10.13;;;6.28;;
11427;SDS011;5770;44.504;11.346;2023-06-22T11:54:00;11.27;;;6.30;;
11427;SDS011;5770;44.504;11.346;2023-06-22T11:56:28;6.38;;;5.47;;
11427;SDS011;5770;44.504;11.346;2023-06-22T11:58:55;13.07;;;5.80;;
11427;SDS011;5770;44.504;11.346;2023-06-22T12:01:22;10.02;;;5.60;;
11427;SDS011;5770;44.504;11.346;2023-06-22T12:03:49;21.60;;;5.63;;
11427;SDS011;5770;44.504;11.346;2023-06-22T12:06:17;11.55;;;5.32;;
11427;SDS011;5770;44.504;11.346;2023-06-22T12:08:45;8.77;;;5.18;;
11427;SDS011;5770;44.504;11.346;2023-06-22T12:11:12;10.13;;;5.28;;
11427;SDS011;5770;44.504;11.346;2023-06-22T12:13:39;10.35;;;5.60;;
11427;SDS011;5770;44.504;11.346;2023-06-22T12:16:07;9.55;;;5.78;;
11427;SDS011;5770;44.504;11.346;2023-06-22T12:18:34;8.82;;;4.88;;
11427;SDS011;5770;44.504;11.346;2023-06-22T12:21:00;12.68;;;5.40;;
11427;SDS011;5770;44.504;11.346;2023-06-22T12:23:27;9.55;;;5.00;;
11427;SDS011;5770;44.504;11.346;2023-06-22T12:25:56;9.20;;;4.82;;
11427;SDS011;5770;44.504;11.346;2023-06-22T12:28:24;11.30;;;5.03;;
11427;SDS011;5770;44.504;11.346;2023-06-22T12:30:51;11.77;;;4.93;;
11427;SDS011;5770;44.504;11.346;2023-06-22T12:33:18;17.45;;;4.75;;
11427;SDS011;5770;44.504;11.346;2023-06-22T12:35:45;6.38;;;4.10;;
11427;SDS011;5770;44.504;11.346;2023-06-22T12:38:14;7.60;;;4.38;;
11427;SDS011;5770;44.504;11.346;2023-06-22T12:40:41;8.52;;;4.25;;
11427;SDS011;5770;44.504;11.346;2023-06-22T12:43:09;10.65;;;4.47;;
11427;SDS011;5770;44.504;11.346;2023-06-22T12:45:36;13.25;;;5.22;;
11427;SDS011;5770;44.504;11.346;2023-06-22T12:48:04;5.97;;;4.45;;
11427;SDS011;5770;44.504;11.346;2023-06-22T12:50:31;8.70;;;4.70;;
11427;SDS011;5770;44.504;11.346;2023-06-22T12:52:58;7.22;;;4.40;;
11427;SDS011;5770;44.504;11.346;2023-06-22T12:55:27;8.70;;;4.15;;
11427;SDS011;5770;44.504;11.346;2023-06-22T12:57:54;9.18;;;4.22;;
11427;SDS011;5770;44.504;11.346;2023-06-22T13:00:23;12.18;;;5.05;;
11427;SDS011;5770;44.504;11.346;2023-06-22T13:02:50;13.07;;;4.07;;
11427;SDS011;5770;44.504;11.346;2023-06-22T13:05:17;9.82;;;4.90;;
11427;SDS011;5770;44.504;11.346;2023-06-22T13:07:44;5.57;;;4.28;;
11427;SDS011;5770;44.504;11.346;2023-06-22T13:10:11;8.73;;;4.25;;
11427;SDS011;5770;44.504;11.346;2023-06-22T13:12:39;6.10;;;4.20;;
11427;SDS011;5770;44.504;11.346;2023-06-22T13:15:06;10.70;;;4.40;;
11427;SDS011;5770;44.504;11.346;2023-06-22T13:17:35;8.23;;;4.22;;
11427;SDS011;5770;44.504;11.346;2023-06-22T13:20:02;7.82;;;3.47;;
11427;SDS011;5770;44.504;11.346;2023-06-22T13:22:30;7.78;;;4.13;;
11427;SDS011;5770;44.504;11.346;2023-06-22T13:24:58;4.53;;;3.60;;
11427;SDS011;5770;44.504;11.346;2023-06-22T13:27:25;8.05;;;3.70;;
11427;SDS011;5770;44.504;11.346;2023-06-22T13:29:52;8.20;;;3.78;;
11427;SDS011;5770;44.504;11.346;2023-06-22T13:32:19;10.45;;;4.30;;
11427;SDS011;5770;44.504;11.346;2023-06-22T13:34:47;9.63;;;4.20;;
11427;SDS011;5770;44.504;11.346;2023-06-22T13:37:14;7.75;;;4.13;;
11427;SDS011;5770;44.504;11.346;2023-06-22T13:39:42;9.82;;;3.97;;
11427;SDS011;5770;44.504;11.346;2023-06-22T13:42:09;11.88;;;3.67;;
11427;SDS011;5770;44.504;11.346;2023-06-22T13:44:36;11.48;;;4.20;;
11427;SDS011;5770;44.504;11.346;2023-06-22T13:47:03;9.98;;;4.20;;
11427;SDS011;5770;44.504;11.346;2023-06-22T13:49:30;9.73;;;3.60;;
11427;SDS011;5770;44.504;11.346;2023-06-22T13:51:59;7.72;;;4.25;;
11427;SDS011;5770;44.504;11.346;2023-06-22T13:54:28;16.20;;;3.90;;
11427;SDS011;5770;44.504;11.346;2023-06-22T13:56:55;5.38;;;3.78;;
11427;SDS011;5770;44.504;11.346;2023-06-22T13:59:22;6.00;;;4.07;;
11427;SDS011;5770;44.504;11.346;2023-06-22T14:01:51;5.90;;;3.75;;
11427;SDS011;5770;44.504;11.346;2023-06-22T14:04:18;12.40;;;3.90;;
11427;SDS011;5770;44.504;11.346;2023-06-22T14:06:45;10.13;;;4.15;;
11427;SDS011;5770;44.504;11.346;2023-06-22T14:09:14;8.15;;;3.95;;
11427;SDS011;5770;44.504;11.346;2023-06-22T14:11:41;9.68;;;4.68;;
11427;SDS011;5770;44.504;11.346;2023-06-22T14:14:08;8.82;;;4.07;;
11427;SDS011;5770;44.504;11.346;2023-06-22T14:16:35;4.43;;;3.90;;
11427;SDS011;5770;44.504;11.346;2023-06-22T14:19:02;10.73;;;4.72;;
11427;SDS011;5770;44.504;11.346;2023-06-22T14:21:29;8.00;;;4.20;;
11427;SDS011;5770;44.504;11.346;2023-06-22T14:23:56;7.18;;;4.22;;
11427;SDS011;5770;44.504;11.346;2023-06-22T14:26:24;11.52;;;4.45;;
11427;SDS011;5770;44.504;11.346;2023-06-22T14:28:52;8.13;;;4.40;;
11427;SDS011;5770;44.504;11.346;2023-06-22T14:31:21;7.80;;;4.43;;
11427;SDS011;5770;44.504;11.346;2023-06-22T14:33:49;8.32;;;4.03;;
11427;SDS011;5770;44.504;11.346;2023-06-22T14:36:17;6.82;;;4.43;;
11427;SDS011;5770;44.504;11.346;2023-06-22T14:38:44;8.50;;;4.80;;
11427;SDS011;5770;44.504;11.346;2023-06-22T14:41:12;10.13;;;4.85;;
11427;SDS011;5770;44.504;11.346;2023-06-22T14:43:44;13.30;;;4.40;;